Lake Tahoe, CA

9:58 AM PDT on October 25, 2014 (GMT -0700)
Lake Tahoe | Change Station
CLOSE
Current Station
Airport
Location: South Lake Tahoe,
Elevation: 6263 ft
Nearby Weather Stations
Active Advisory: Lake Wind Advisory

Elev 6263 ft 38.90 °N, 120.00 °W | Updated 5 minutes ago

Clear
Clear
54 °F
Feels Like 54 °F
N
21
Wind Variable Wind from SSW
Gusts 38 mph

Today
High -- | Low -- °F
--% Chance of Precip.
Yesterday
High -- | Low -- °F
Precip. -- in
7:19 AM 6:07 PM
Waxing Crescent, 3% visible
Pressure 29.90 in
Visibility 10.0 miles
Clouds Clear
Dew Point 25 °F
Humidity 33%
Rainfall 0.00 in
Snow Depth 0 in , 0 in , 1 in
UV 2 out of 12
Pollen 3.10 out of 12
Air Quality Not available.
Flu Activity Sporadic
METAR KTVL 251653Z AUTO 20018G33KT 10SM CLR 12/M04 A3004 RMK AO2 PK WND 19033/1651 SLP124 T01221039

More Conditions Fewer Conditions

Pressure 29.90 in
Visibility 10.0 miles
Clouds Clear
Dew Point 25 °F
Humidity 33%
Rainfall 0.00 in
Snow Depth 0 in , 0 in , 1 in
UV 2 out of 12
Pollen 3.10 out of 12
Air Quality Not available.
Flu Activity Sporadic
METAR KTVL 251653Z AUTO 20018G33KT 10SM CLR 12/M04 A3004 RMK AO2 PK WND 19033/1651 SLP124 T01221039

More Conditions Fewer Conditions

10-Day Weather Forecast

Almanac

Astronomy

Oct. 25, 2014 Rise Set
Actual Time 7:19 AM PDT 6:07 PM PDT
Civil Twilight 6:52 AM PDT 6:34 PM PDT
Nautical Twilight 6:21 AM PDT 7:06 PM PDT
Astronomical Twilight 5:50 AM PDT 7:37 PM PDT
Moon 9:02 AM PDT 7:35 PM PDT
Length of Visible Light 11h 42m
Length of Day
10h 47m
Tomorrow will be 2m 19s shorter.
Waxing Crescent, 3% of the Moon is Illuminated
Today
Waxing Crescent
Oct 30
First Quarter
Nov 6
Full
Nov 14
Last Quarter
Nov 22
New

Today's Extremes

State Highs State Lows

Community

WunderPhotos

Upload Photos

1,764,901 photos uploaded!

Nearby

Snow Depth

Station Depth Elevation
Fallen Leaf 0 in 6300 ft
Hagan's Meadow 0 in 8000 ft
Echo Peak 1 in 7800 ft
Heavenly Valley 0 in 8850 ft
Horse Meadow 0 in 8631 ft

Earthquake Activity

City Distance Mag. Time & Date
Antioch, California 113 miles 2.7 6:42 AM PDT
2014-10-25
Gerlach-Empire, Nevada 98 miles 2.5 7:16 AM PDT
2014-10-23
Minimum magnitude displayed is 2.5.

Coastal Water Temperatures

Place Temperature
No Stations Reporting

Nearby Weather Stations